Time;durP1;ratioP1;P1;durP2;ratioP2;P2;SDS_P1;SDS_P2;PMS_P1;PMS_P2;Temp;Humidity;BMP_temperature;BMP_pressure;BME280_temperature;BME280_humidity;BME280_pressure;Samples;Min_cycle;Max_cycle;Signal;HPM_P1;HPM_P2
2023/04/18 00:00:30;;;;;;;13.60;12.27;;;;;;;;;;5094452;28;20294;-77
2023/04/18 00:02:57;;;;;;;14.53;12.37;;;;;;;;;;5094329;28;20226;-77
2023/04/18 00:05:23;;;;;;;12.70;11.40;;;;;;;;;;5094068;28;20690;-77
2023/04/18 00:07:50;;;;;;;13.70;12.30;;;;;;;;;;5094842;28;20207;-77
2023/04/18 00:10:16;;;;;;;14.10;12.60;;;;;;;;;;5095032;28;20303;-77
2023/04/18 00:12:42;;;;;;;13.83;11.90;;;;;;;;;;5094151;28;20224;-77
2023/04/18 00:15:09;;;;;;;14.33;12.87;;;;;;;;;;5093790;28;20204;-77
2023/04/18 00:17:37;;;;;;;13.20;11.77;;;;;;;;;;5093684;28;20597;-77
2023/04/18 00:20:05;;;;;;;14.07;12.57;;;;;;;;;;5093911;28;20655;-77
2023/04/18 00:22:32;;;;;;;13.30;12.10;;;;;;;;;;5094622;28;20252;-77
2023/04/18 00:24:59;;;;;;;13.73;12.43;;;;;;;;;;5093786;28;20256;-77
2023/04/18 00:27:25;;;;;;;13.60;12.30;;;;;;;;;;5093149;28;20200;-77
2023/04/18 00:29:51;;;;;;;14.03;12.27;;;;;;;;;;5094494;28;20245;-77
2023/04/18 00:32:18;;;;;;;14.40;12.20;;;;;;;;;;5093531;28;20235;-77
2023/04/18 00:34:45;;;;;;;14.47;12.97;;;;;;;;;;5093863;28;20290;-77
2023/04/18 00:37:11;;;;;;;14.03;12.57;;;;;;;;;;5093791;28;20232;-77
2023/04/18 00:39:37;;;;;;;13.33;11.83;;;;;;;;;;5093807;28;20207;-77
2023/04/18 00:42:04;;;;;;;14.70;12.70;;;;;;;;;;5093458;28;20675;-77
2023/04/18 00:44:31;;;;;;;14.67;12.33;;;;;;;;;;5093786;28;20210;-77
2023/04/18 00:46:57;;;;;;;14.80;13.20;;;;;;;;;;5093746;28;20196;-77
2023/04/18 00:49:23;;;;;;;14.97;12.83;;;;;;;;;;5093699;28;20212;-77
2023/04/18 00:51:50;;;;;;;14.73;13.10;;;;;;;;;;5093739;28;20291;-77
2023/04/18 00:54:18;;;;;;;14.13;12.40;;;;;;;;;;5094146;28;20232;-77
2023/04/18 00:56:47;;;;;;;14.27;12.80;;;;;;;;;;5093607;28;20235;-77
2023/04/18 00:59:14;;;;;;;15.17;12.33;;;;;;;;;;5093627;28;20204;-77
2023/04/18 01:01:42;;;;;;;13.53;12.23;;;;;;;;;;5093169;28;20249;-77
2023/04/18 01:04:08;;;;;;;13.20;11.80;;;;;;;;;;5093209;28;20228;-77
2023/04/18 01:06:35;;;;;;;13.43;11.87;;;;;;;;;;5093278;28;20208;-77
2023/04/18 01:09:02;;;;;;;15.23;12.13;;;;;;;;;;5093554;28;20200;-77
2023/04/18 01:11:28;;;;;;;13.07;11.77;;;;;;;;;;5093520;28;20200;-77
2023/04/18 01:13:58;;;;;;;12.43;11.13;;;;;;;;;;5093128;28;20738;-77
2023/04/18 01:16:25;;;;;;;12.70;11.50;;;;;;;;;;5093412;28;20228;-77
2023/04/18 01:18:52;;;;;;;13.07;11.20;;;;;;;;;;5093127;28;20226;-76
2023/04/18 01:21:18;;;;;;;11.60;10.47;;;;;;;;;;5093374;28;20204;-76
2023/04/18 01:23:45;;;;;;;12.73;10.73;;;;;;;;;;5093052;28;20280;-77
2023/04/18 01:26:11;;;;;;;13.13;10.50;;;;;;;;;;5092179;28;20200;-77
2023/04/18 01:28:37;;;;;;;12.43;11.13;;;;;;;;;;5093299;28;20207;-77
2023/04/18 01:31:04;;;;;;;14.20;12.20;;;;;;;;;;5093331;28;20230;-77
2023/04/18 01:33:30;;;;;;;12.67;11.47;;;;;;;;;;5093238;28;20232;-77
2023/04/18 01:35:56;;;;;;;13.07;11.27;;;;;;;;;;5093248;28;20289;-76
2023/04/18 01:38:22;;;;;;;13.27;11.50;;;;;;;;;;5095669;28;20257;-77
2023/04/18 01:40:49;;;;;;;12.37;11.10;;;;;;;;;;5097123;28;20208;-77
2023/04/18 01:43:15;;;;;;;12.07;10.87;;;;;;;;;;5096729;28;20228;-76
2023/04/18 01:45:41;;;;;;;12.73;11.20;;;;;;;;;;5096778;28;20204;-77
2023/04/18 01:48:08;;;;;;;13.77;11.50;;;;;;;;;;5096634;28;20208;-77
2023/04/18 01:50:34;;;;;;;13.07;11.77;;;;;;;;;;5096612;28;20701;-77
2023/04/18 01:53:00;;;;;;;14.60;11.70;;;;;;;;;;5096498;28;20228;-77
2023/04/18 01:55:26;;;;;;;13.33;11.93;;;;;;;;;;5097216;28;20204;-77
2023/04/18 01:57:53;;;;;;;14.40;12.80;;;;;;;;;;5096668;28;20223;-77
2023/04/18 02:00:19;;;;;;;13.50;11.80;;;;;;;;;;5096331;28;20215;-77
2023/04/18 02:02:46;;;;;;;12.87;11.57;;;;;;;;;;5096605;28;20242;-77
2023/04/18 02:05:12;;;;;;;13.73;12.33;;;;;;;;;;5096293;28;20210;-77
2023/04/18 02:07:38;;;;;;;13.13;11.83;;;;;;;;;;5096596;28;20222;-77
2023/04/18 02:10:05;;;;;;;12.47;11.27;;;;;;;;;;5096511;28;20570;-77
2023/04/18 02:12:33;;;;;;;13.17;11.80;;;;;;;;;;5096179;28;20224;-77
2023/04/18 02:14:59;;;;;;;12.53;11.20;;;;;;;;;;5096147;28;20247;-77
2023/04/18 02:17:25;;;;;;;13.50;11.87;;;;;;;;;;5096144;28;20314;-77
2023/04/18 02:19:51;;;;;;;12.30;11.00;;;;;;;;;;5096425;28;20196;-77
2023/04/18 02:22:18;;;;;;;13.20;11.80;;;;;;;;;;5096265;28;20204;-77
2023/04/18 02:24:44;;;;;;;12.70;11.40;;;;;;;;;;5095981;28;20683;-77
2023/04/18 02:27:11;;;;;;;11.63;10.50;;;;;;;;;;5096156;28;20226;-77
2023/04/18 02:29:37;;;;;;;12.57;11.27;;;;;;;;;;5096236;28;20210;-77
2023/04/18 02:32:03;;;;;;;12.37;11.17;;;;;;;;;;5095998;28;20211;-77
2023/04/18 02:34:31;;;;;;;13.53;11.10;;;;;;;;;;5095795;28;20688;-76
2023/04/18 02:36:57;;;;;;;12.03;10.83;;;;;;;;;;5095992;28;20694;-76
2023/04/18 02:39:23;;;;;;;11.70;10.50;;;;;;;;;;5095996;28;20377;-77
2023/04/18 02:41:50;;;;;;;12.77;11.40;;;;;;;;;;5095939;28;20200;-77
2023/04/18 02:44:16;;;;;;;14.13;11.07;;;;;;;;;;5095831;28;20623;-77
2023/04/18 02:46:42;;;;;;;12.90;11.33;;;;;;;;;;5095851;28;20251;-77
2023/04/18 02:49:09;;;;;;;12.47;10.80;;;;;;;;;;5094782;28;20207;-77
2023/04/18 02:51:35;;;;;;;12.63;11.33;;;;;;;;;;5095626;28;20215;-77
2023/04/18 02:54:01;;;;;;;12.57;11.30;;;;;;;;;;5095574;28;20224;-77
2023/04/18 02:56:28;;;;;;;13.57;11.20;;;;;;;;;;5095596;28;20652;-77
2023/04/18 02:58:54;;;;;;;12.00;10.77;;;;;;;;;;5095498;28;20211;-77
2023/04/18 03:01:20;;;;;;;13.60;11.37;;;;;;;;;;5095545;28;20205;-77
2023/04/18 03:03:46;;;;;;;13.23;11.07;;;;;;;;;;5095230;28;20630;-77
2023/04/18 03:06:13;;;;;;;13.07;11.67;;;;;;;;;;5095418;28;20205;-76
2023/04/18 03:08:39;;;;;;;13.30;11.40;;;;;;;;;;5095342;28;20211;-77
2023/04/18 03:11:06;;;;;;;11.90;10.73;;;;;;;;;;5095123;28;20199;-77
2023/04/18 03:13:32;;;;;;;15.60;11.53;;;;;;;;;;5094662;28;20230;-78
2023/04/18 03:15:59;;;;;;;12.87;11.47;;;;;;;;;;5094841;28;20210;-77
2023/04/18 03:18:25;;;;;;;12.37;11.07;;;;;;;;;;5094776;28;20216;-77
2023/04/18 03:20:51;;;;;;;12.87;10.83;;;;;;;;;;5094924;28;20208;-77
2023/04/18 03:23:18;;;;;;;13.17;11.87;;;;;;;;;;5095515;28;20227;-77
2023/04/18 03:25:44;;;;;;;13.27;11.93;;;;;;;;;;5094804;28;20207;-77
2023/04/18 03:28:10;;;;;;;12.20;11.00;;;;;;;;;;5094510;28;20701;-77
2023/04/18 03:30:36;;;;;;;12.67;11.37;;;;;;;;;;5094639;28;20672;-77
2023/04/18 03:33:04;;;;;;;12.93;11.57;;;;;;;;;;5094462;28;20227;-77
2023/04/18 03:35:30;;;;;;;12.60;11.40;;;;;;;;;;5094662;28;20204;-77
2023/04/18 03:37:56;;;;;;;14.93;12.07;;;;;;;;;;5094182;28;20306;-77
2023/04/18 03:40:22;;;;;;;13.77;11.60;;;;;;;;;;5094611;28;20208;-77
2023/04/18 03:42:49;;;;;;;12.83;11.47;;;;;;;;;;5094100;28;20231;-77
2023/04/18 03:45:15;;;;;;;13.20;11.80;;;;;;;;;;5094851;28;20545;-77
2023/04/18 03:47:41;;;;;;;13.40;12.03;;;;;;;;;;5094246;28;20253;-76
2023/04/18 03:50:08;;;;;;;12.80;11.37;;;;;;;;;;5094507;28;20200;-76
2023/04/18 03:52:34;;;;;;;13.33;11.87;;;;;;;;;;5094456;28;20251;-77
2023/04/18 03:55:00;;;;;;;13.90;11.63;;;;;;;;;;5094467;28;20234;-77
2023/04/18 03:57:26;;;;;;;14.57;11.63;;;;;;;;;;5094337;28;20250;-77
2023/04/18 03:59:53;;;;;;;14.03;11.90;;;;;;;;;;5093707;28;20199;-77
2023/04/18 04:02:19;;;;;;;13.93;11.83;;;;;;;;;;5094577;28;20222;-77
2023/04/18 04:04:45;;;;;;;13.30;12.00;;;;;;;;;;5094024;28;20295;-77
2023/04/18 04:07:12;;;;;;;12.97;11.67;;;;;;;;;;5094078;28;20196;-77
2023/04/18 04:09:38;;;;;;;15.27;11.93;;;;;;;;;;5093807;28;20207;-77
2023/04/18 04:12:04;;;;;;;13.73;11.90;;;;;;;;;;5093729;28;20216;-77
2023/04/18 04:14:31;;;;;;;13.60;12.20;;;;;;;;;;5094020;28;20207;-77
2023/04/18 04:16:57;;;;;;;13.07;11.67;;;;;;;;;;5093850;28;20277;-77
2023/04/18 04:19:23;;;;;;;13.37;11.97;;;;;;;;;;5093522;28;20224;-77
2023/04/18 04:21:50;;;;;;;13.53;11.87;;;;;;;;;;5093523;28;20210;-77
2023/04/18 04:24:16;;;;;;;13.47;12.10;;;;;;;;;;5093422;28;20224;-77
2023/04/18 04:26:42;;;;;;;13.17;11.40;;;;;;;;;;5093510;28;20203;-77
2023/04/18 04:29:09;;;;;;;14.73;12.90;;;;;;;;;;5093751;28;20204;-77
2023/04/18 04:31:36;;;;;;;12.73;11.43;;;;;;;;;;5093207;28;20611;-77
2023/04/18 04:34:03;;;;;;;13.43;11.77;;;;;;;;;;5093459;28;20232;-77
2023/04/18 04:36:32;;;;;;;14.40;12.23;;;;;;;;;;5093297;28;20204;-77
2023/04/18 04:38:58;;;;;;;14.53;12.83;;;;;;;;;;5093445;28;20238;-77
2023/04/18 04:41:24;;;;;;;13.37;11.73;;;;;;;;;;5093153;28;20312;-77
2023/04/18 04:43:51;;;;;;;16.07;12.07;;;;;;;;;;5093050;28;20226;-77
2023/04/18 04:46:18;;;;;;;13.63;11.63;;;;;;;;;;5093203;28;20200;-77
2023/04/18 04:48:44;;;;;;;13.90;12.20;;;;;;;;;;5092666;28;20650;-77
2023/04/18 04:51:11;;;;;;;16.07;12.33;;;;;;;;;;5093399;28;20207;-76
2023/04/18 04:53:37;;;;;;;14.13;11.73;;;;;;;;;;5092906;28;20230;-77
2023/04/18 04:56:04;;;;;;;13.50;12.10;;;;;;;;;;5092935;28;20204;-76
2023/04/18 04:58:31;;;;;;;14.33;12.70;;;;;;;;;;5092892;28;20220;-76
2023/04/18 05:00:57;;;;;;;13.77;12.33;;;;;;;;;;5093173;28;20204;-77
2023/04/18 05:03:23;;;;;;;14.03;12.33;;;;;;;;;;5092740;28;20228;-76
2023/04/18 05:05:49;;;;;;;13.70;12.20;;;;;;;;;;5092657;28;20207;-77
2023/04/18 05:08:16;;;;;;;14.83;12.80;;;;;;;;;;5093147;28;20199;-76
2023/04/18 05:10:42;;;;;;;13.67;12.17;;;;;;;;;;5092713;28;20210;-77
2023/04/18 05:13:08;;;;;;;14.13;12.00;;;;;;;;;;5094793;28;20223;-77
2023/04/18 05:15:34;;;;;;;13.30;11.90;;;;;;;;;;5096984;28;20207;-77
2023/04/18 05:18:32;;;;;;;14.07;12.57;;;;;;;;;;5096473;28;20224;-76
2023/04/18 05:20:58;;;;;;;13.73;12.10;;;;;;;;;;5095865;28;20203;-77
2023/04/18 05:23:24;;;;;;;14.93;13.07;;;;;;;;;;5095435;28;20447;-77
2023/04/18 05:25:50;;;;;;;14.10;12.40;;;;;;;;;;5095559;28;20210;-77
2023/04/18 05:28:17;;;;;;;14.17;12.70;;;;;;;;;;5095250;28;20196;-77
2023/04/18 05:30:44;;;;;;;14.47;12.57;;;;;;;;;;5095709;28;20212;-78
2023/04/18 05:33:10;;;;;;;14.67;13.17;;;;;;;;;;5095688;28;20227;-76
2023/04/18 05:35:37;;;;;;;13.70;12.33;;;;;;;;;;5096522;28;20215;-77
2023/04/18 05:38:03;;;;;;;14.13;12.73;;;;;;;;;;5097079;28;20230;-77
2023/04/18 05:40:29;;;;;;;15.67;12.23;;;;;;;;;;5096202;28;20215;-77
2023/04/18 05:42:56;;;;;;;14.90;12.93;;;;;;;;;;5096534;28;20260;-77
2023/04/18 05:45:22;;;;;;;13.90;12.47;;;;;;;;;;5096472;28;20199;-77
2023/04/18 05:47:48;;;;;;;14.20;12.70;;;;;;;;;;5096548;28;20200;-77
2023/04/18 05:50:14;;;;;;;15.07;12.83;;;;;;;;;;5096288;28;20215;-77
2023/04/18 05:52:41;;;;;;;14.20;12.80;;;;;;;;;;5096103;28;20643;-77
2023/04/18 05:55:07;;;;;;;15.40;13.30;;;;;;;;;;5096083;28;20234;-77
2023/04/18 05:57:33;;;;;;;14.80;12.90;;;;;;;;;;5096259;28;20221;-77
2023/04/18 06:00:00;;;;;;;15.03;13.43;;;;;;;;;;5095985;28;20208;-77
2023/04/18 06:02:26;;;;;;;14.57;13.13;;;;;;;;;;5095518;28;20706;-77
2023/04/18 06:04:52;;;;;;;13.57;12.17;;;;;;;;;;5095937;28;20547;-77
2023/04/18 06:07:20;;;;;;;13.90;12.60;;;;;;;;;;5095594;28;20203;-77
2023/04/18 06:09:47;;;;;;;14.00;12.60;;;;;;;;;;5095991;28;20204;-77
2023/04/18 06:12:13;;;;;;;14.07;12.47;;;;;;;;;;5095844;28;20204;-77
2023/04/18 06:14:40;;;;;;;14.10;12.70;;;;;;;;;;5095609;28;20741;-77
2023/04/18 06:17:08;;;;;;;14.00;12.20;;;;;;;;;;5095629;28;20227;-77
2023/04/18 06:19:35;;;;;;;17.07;12.47;;;;;;;;;;5095154;28;20245;-77
2023/04/18 06:22:01;;;;;;;15.90;11.83;;;;;;;;;;5094839;28;20208;-77
2023/04/18 06:24:27;;;;;;;15.23;13.07;;;;;;;;;;5094975;28;20215;-77
2023/04/18 06:26:54;;;;;;;14.03;11.93;;;;;;;;;;5094907;28;20204;-77
2023/04/18 06:29:22;;;;;;;14.10;12.37;;;;;;;;;;5095168;28;20603;-77
2023/04/18 06:31:49;;;;;;;13.30;11.90;;;;;;;;;;5094930;28;20204;-77
2023/04/18 06:34:15;;;;;;;13.87;11.83;;;;;;;;;;5095289;28;20242;-77
2023/04/18 06:36:42;;;;;;;14.97;13.43;;;;;;;;;;5095512;28;20206;-77
2023/04/18 06:39:08;;;;;;;13.53;12.23;;;;;;;;;;5095094;28;20224;-77
2023/04/18 06:41:34;;;;;;;15.10;12.40;;;;;;;;;;5095321;28;20228;-77
2023/04/18 06:44:00;;;;;;;14.03;12.63;;;;;;;;;;5095379;28;20222;-77
2023/04/18 06:46:27;;;;;;;14.10;12.60;;;;;;;;;;5095430;28;20238;-77
2023/04/18 06:48:53;;;;;;;13.97;12.47;;;;;;;;;;5095196;28;20208;-77
2023/04/18 06:51:19;;;;;;;13.57;12.00;;;;;;;;;;5095497;28;20218;-77
2023/04/18 06:53:46;;;;;;;14.90;12.00;;;;;;;;;;5094640;28;20238;-77
2023/04/18 06:56:12;;;;;;;13.13;11.73;;;;;;;;;;5095165;28;20199;-77
2023/04/18 06:58:39;;;;;;;13.07;11.60;;;;;;;;;;5094648;28;20235;-76
2023/04/18 07:01:05;;;;;;;14.80;12.10;;;;;;;;;;5094822;28;20200;-76
2023/04/18 07:03:31;;;;;;;12.97;11.57;;;;;;;;;;5095138;28;20246;-76
2023/04/18 07:05:57;;;;;;;15.60;12.40;;;;;;;;;;5095108;28;20207;-76
2023/04/18 07:08:24;;;;;;;12.50;11.07;;;;;;;;;;5094704;28;20204;-77
2023/04/18 07:10:50;;;;;;;14.37;12.87;;;;;;;;;;5094834;28;20204;-76
2023/04/18 07:13:16;;;;;;;14.40;12.33;;;;;;;;;;5094488;28;20239;-76
2023/04/18 07:15:42;;;;;;;14.07;12.67;;;;;;;;;;5094503;28;20204;-76
2023/04/18 07:18:09;;;;;;;14.13;11.70;;;;;;;;;;5094180;28;20598;-77
2023/04/18 07:20:35;;;;;;;13.40;12.17;;;;;;;;;;5094686;28;20199;-76
2023/04/18 07:23:01;;;;;;;14.70;13.00;;;;;;;;;;5094465;28;20227;-76
2023/04/18 07:25:27;;;;;;;14.17;12.10;;;;;;;;;;5094652;28;20210;-76
2023/04/18 07:27:54;;;;;;;13.87;12.37;;;;;;;;;;5094165;28;20200;-76
2023/04/18 07:30:20;;;;;;;12.83;11.63;;;;;;;;;;5094500;28;20204;-76
2023/04/18 07:32:47;;;;;;;11.97;10.73;;;;;;;;;;5094279;28;20706;-76
2023/04/18 07:35:14;;;;;;;13.83;12.43;;;;;;;;;;5094345;28;20311;-76
2023/04/18 07:37:40;;;;;;;13.70;12.40;;;;;;;;;;5094175;28;20219;-76
2023/04/18 07:40:07;;;;;;;13.37;11.47;;;;;;;;;;5095481;28;20765;-76
2023/04/18 07:42:33;;;;;;;14.83;11.77;;;;;;;;;;5094168;28;20219;-76
2023/04/18 07:44:59;;;;;;;12.60;11.30;;;;;;;;;;5095290;28;20211;-76
2023/04/18 07:47:27;;;;;;;12.83;10.70;;;;;;;;;;5094364;28;20247;-76
2023/04/18 07:49:53;;;;;;;12.53;11.33;;;;;;;;;;5094424;28;20208;-76
2023/04/18 07:52:19;;;;;;;13.17;11.73;;;;;;;;;;5093834;28;20681;-76
2023/04/18 07:54:46;;;;;;;12.10;10.90;;;;;;;;;;5094033;28;20229;-76
2023/04/18 07:57:12;;;;;;;13.10;11.80;;;;;;;;;;5093974;28;20204;-76
2023/04/18 07:59:38;;;;;;;13.13;11.83;;;;;;;;;;5094086;28;20234;-76
2023/04/18 08:02:05;;;;;;;12.60;11.30;;;;;;;;;;5093791;28;20199;-76
2023/04/18 08:04:31;;;;;;;13.40;11.93;;;;;;;;;;5093772;28;20204;-75
2023/04/18 08:06:58;;;;;;;14.07;12.33;;;;;;;;;;5094656;28;20211;-76
2023/04/18 08:09:24;;;;;;;12.53;11.23;;;;;;;;;;5093960;28;20196;-76
2023/04/18 08:11:51;;;;;;;13.43;12.00;;;;;;;;;;5093464;28;20212;-76
2023/04/18 08:14:17;;;;;;;12.63;11.27;;;;;;;;;;5093204;28;20702;-75
2023/04/18 08:16:43;;;;;;;16.03;12.70;;;;;;;;;;5093793;28;20204;-75
2023/04/18 08:19:10;;;;;;;16.60;13.07;;;;;;;;;;5093573;28;20583;-77
2023/04/18 08:21:36;;;;;;;13.50;11.83;;;;;;;;;;5093391;28;20211;-76
2023/04/18 08:24:02;;;;;;;13.90;12.07;;;;;;;;;;5093298;28;20733;-75
2023/04/18 08:26:28;;;;;;;14.53;13.00;;;;;;;;;;5093271;28;20562;-76
2023/04/18 08:28:55;;;;;;;12.97;11.57;;;;;;;;;;5093366;28;20203;-76
2023/04/18 08:31:21;;;;;;;13.90;12.37;;;;;;;;;;5093452;28;20211;-76
2023/04/18 08:33:47;;;;;;;13.47;12.07;;;;;;;;;;5092999;28;20228;-76
2023/04/18 08:36:13;;;;;;;14.03;12.37;;;;;;;;;;5093644;28;20207;-76
2023/04/18 08:38:40;;;;;;;12.77;11.40;;;;;;;;;;5093444;28;20250;-76
2023/04/18 08:41:06;;;;;;;13.77;12.37;;;;;;;;;;5093346;28;20239;-76
2023/04/18 08:43:32;;;;;;;14.50;12.33;;;;;;;;;;5093440;28;20325;-76
2023/04/18 08:45:59;;;;;;;14.10;12.37;;;;;;;;;;5093306;28;20200;-76
2023/04/18 08:48:26;;;;;;;13.13;11.83;;;;;;;;;;5092692;28;20226;-76
2023/04/18 08:50:56;;;;;;;13.47;12.07;;;;;;;;;;5093521;28;20200;-76
2023/04/18 08:53:22;;;;;;;12.63;11.33;;;;;;;;;;5093091;28;20224;-76
2023/04/18 08:55:52;;;;;;;13.27;11.50;;;;;;;;;;5093482;28;20203;-76
2023/04/18 08:58:22;;;;;;;12.93;11.63;;;;;;;;;;5093138;28;20298;-76
2023/04/18 09:00:52;;;;;;;14.00;11.80;;;;;;;;;;5092987;28;20212;-76
2023/04/18 09:03:36;;;;;;;13.37;11.87;;;;;;;;;;5093371;28;20234;-76
2023/04/18 09:06:07;;;;;;;13.00;11.30;;;;;;;;;;5092995;28;20555;-75
2023/04/18 09:08:34;;;;;;;13.57;12.17;;;;;;;;;;5092912;28;20184;-76
2023/04/18 09:11:19;;;;;;;13.97;12.40;;;;;;;;;;5093186;28;20206;-78
2023/04/18 09:13:46;;;;;;;13.87;12.47;;;;;;;;;;5093164;28;20238;-76
2023/04/18 09:16:13;;;;;;;14.73;12.03;;;;;;;;;;5092591;28;20307;-76
2023/04/18 09:18:39;;;;;;;13.77;12.40;;;;;;;;;;5092511;28;20232;-76
2023/04/18 09:21:16;;;;;;;14.43;12.93;;;;;;;;;;5092412;28;20773;-76
2023/04/18 09:23:42;;;;;;;13.03;11.73;;;;;;;;;;5092886;28;20220;-76
2023/04/18 09:26:08;;;;;;;14.90;12.53;;;;;;;;;;5092778;28;20206;-76
2023/04/18 09:28:36;;;;;;;15.17;11.87;;;;;;;;;;5092538;28;20223;-76
2023/04/18 09:31:10;;;;;;;13.77;12.10;;;;;;;;;;5092871;28;20281;-76
2023/04/18 09:33:37;;;;;;;13.20;11.90;;;;;;;;;;5092502;28;20321;-76
2023/04/18 09:36:16;;;;;;;13.47;12.17;;;;;;;;;;5092685;28;20685;-76
2023/04/18 09:38:42;;;;;;;13.47;12.10;;;;;;;;;;5092728;28;20224;-76
2023/04/18 09:41:09;;;;;;;12.53;11.33;;;;;;;;;;5092362;28;20208;-75
2023/04/18 09:43:36;;;;;;;12.97;11.73;;;;;;;;;;5092795;28;20224;-76
2023/04/18 09:46:04;;;;;;;12.77;11.47;;;;;;;;;;5092261;28;20315;-76
2023/04/18 09:48:30;;;;;;;12.43;11.13;;;;;;;;;;5092923;28;20207;-76
2023/04/18 09:50:58;;;;;;;12.00;10.87;;;;;;;;;;5092779;28;20232;-76
2023/04/18 09:53:25;;;;;;;12.27;11.07;;;;;;;;;;5092685;28;20586;-76
2023/04/18 09:55:52;;;;;;;11.83;10.70;;;;;;;;;;5092865;28;20224;-76
2023/04/18 09:58:21;;;;;;;12.23;10.93;;;;;;;;;;5092850;28;20699;-76
2023/04/18 10:00:47;;;;;;;12.80;10.83;;;;;;;;;;5096122;28;20215;-76
2023/04/18 10:03:14;;;;;;;11.57;10.47;;;;;;;;;;5096287;28;20251;-76
2023/04/18 10:05:41;;;;;;;11.93;10.83;;;;;;;;;;5094820;28;20664;-76
2023/04/18 10:08:08;;;;;;;10.73;9.73;;;;;;;;;;5096332;28;20229;-76
2023/04/18 10:10:35;;;;;;;11.90;10.70;;;;;;;;;;5095802;28;20298;-76
2023/04/18 10:13:02;;;;;;;11.33;10.23;;;;;;;;;;5095704;28;20230;-76
2023/04/18 10:15:29;;;;;;;11.63;10.53;;;;;;;;;;5095782;28;20217;-76
2023/04/18 10:17:59;;;;;;;13.43;10.40;;;;;;;;;;5095419;28;20211;-76
2023/04/18 10:20:27;;;;;;;9.97;8.97;;;;;;;;;;5096011;28;20237;-76
2023/04/18 10:22:54;;;;;;;10.50;9.50;;;;;;;;;;5096469;28;20326;-75
2023/04/18 10:25:38;;;;;;;10.90;9.53;;;;;;;;;;5096446;28;20207;-75
2023/04/18 10:28:09;;;;;;;9.57;8.63;;;;;;;;;;5096293;28;20214;-75
2023/04/18 10:30:39;;;;;;;9.53;8.67;;;;;;;;;;5095674;28;20265;-75
2023/04/18 10:33:23;;;;;;;11.20;10.10;;;;;;;;;;5095485;28;20593;-75
2023/04/18 10:35:56;;;;;;;11.20;10.10;;;;;;;;;;5095639;28;20207;-75
2023/04/18 10:38:23;;;;;;;9.77;8.77;;;;;;;;;;5095689;28;20246;-75
2023/04/18 10:40:49;;;;;;;10.10;9.10;;;;;;;;;;5095648;28;20204;-76
2023/04/18 10:43:16;;;;;;;10.33;9.00;;;;;;;;;;5095481;28;20224;-76
2023/04/18 10:45:42;;;;;;;9.63;8.77;;;;;;;;;;5095581;28;20200;-76
2023/04/18 10:48:24;;;;;;;9.20;8.30;;;;;;;;;;5095794;28;20244;-75
2023/04/18 10:51:09;;;;;;;9.23;8.33;;;;;;;;;;5095537;28;20245;-75
2023/04/18 10:53:35;;;;;;;8.73;7.83;;;;;;;;;;5094906;28;20255;-75
2023/04/18 10:56:03;;;;;;;9.73;8.73;;;;;;;;;;5095636;28;20293;-75
2023/04/18 10:58:31;;;;;;;8.70;7.90;;;;;;;;;;5094806;28;20807;-75
2023/04/18 11:00:58;;;;;;;8.87;7.97;;;;;;;;;;5095287;28;20200;-75
2023/04/18 11:03:32;;;;;;;9.00;8.17;;;;;;;;;;5095121;28;20250;-75
2023/04/18 11:06:02;;;;;;;9.83;8.93;;;;;;;;;;5094732;28;20673;-75
2023/04/18 11:08:29;;;;;;;9.63;8.63;;;;;;;;;;5095127;28;20203;-75
2023/04/18 11:10:59;;;;;;;8.77;7.97;;;;;;;;;;5094080;28;20235;-75
2023/04/18 11:13:25;;;;;;;8.20;6.93;;;;;;;;;;5094688;28;20718;-74
2023/04/18 11:15:51;;;;;;;7.10;6.40;;;;;;;;;;5094579;28;20612;-76
2023/04/18 11:18:17;;;;;;;8.10;7.00;;;;;;;;;;5094491;28;20212;-75
2023/04/18 11:20:48;;;;;;;7.63;6.80;;;;;;;;;;5094938;28;20206;-74
2023/04/18 11:23:19;;;;;;;9.23;7.10;;;;;;;;;;5094370;28;20279;-75
2023/04/18 11:25:46;;;;;;;7.63;6.83;;;;;;;;;;5094763;28;20203;-75
2023/04/18 11:28:12;;;;;;;7.37;6.67;;;;;;;;;;5094576;28;20207;-76
2023/04/18 11:30:40;;;;;;;6.60;6.00;;;;;;;;;;5094521;28;20544;-75
2023/04/18 11:33:12;;;;;;;7.17;6.47;;;;;;;;;;5094285;28;20230;-75
2023/04/18 11:35:39;;;;;;;7.20;6.50;;;;;;;;;;5094435;28;20291;-76
2023/04/18 11:38:05;;;;;;;7.27;6.57;;;;;;;;;;5094307;28;20208;-75
2023/04/18 11:40:32;;;;;;;7.17;6.47;;;;;;;;;;5094135;28;20216;-75
2023/04/18 11:43:02;;;;;;;6.70;6.10;;;;;;;;;;5094026;28;20227;-75
2023/04/18 11:45:28;;;;;;;7.03;6.33;;;;;;;;;;5094295;28;20211;-76
2023/04/18 11:47:55;;;;;;;6.43;5.83;;;;;;;;;;5094109;28;20212;-75
2023/04/18 11:50:22;;;;;;;8.17;6.60;;;;;;;;;;5093783;28;20722;-75
2023/04/18 11:52:52;;;;;;;8.33;6.37;;;;;;;;;;5094033;28;20224;-75
2023/04/18 11:55:20;;;;;;;8.13;7.20;;;;;;;;;;5093827;28;20200;-75
2023/04/18 11:58:04;;;;;;;8.67;7.87;;;;;;;;;;5093962;28;20208;-75
2023/04/18 12:00:31;;;;;;;8.73;7.83;;;;;;;;;;5093904;28;20218;-75
2023/04/18 12:02:58;;;;;;;8.40;7.60;;;;;;;;;;5093853;28;20355;-75
2023/04/18 12:05:29;;;;;;;9.10;8.20;;;;;;;;;;5093919;28;20207;-75
2023/04/18 12:07:55;;;;;;;9.80;8.13;;;;;;;;;;5093837;28;20244;-76
2023/04/18 12:10:22;;;;;;;9.40;8.50;;;;;;;;;;5093972;28;20208;-75
2023/04/18 12:12:49;;;;;;;9.33;8.43;;;;;;;;;;5093663;28;20247;-75
2023/04/18 12:15:16;;;;;;;9.67;8.67;;;;;;;;;;5093247;28;20426;-75
2023/04/18 12:17:47;;;;;;;8.60;7.80;;;;;;;;;;5094110;28;20207;-75
2023/04/18 12:20:14;;;;;;;8.73;7.83;;;;;;;;;;5093528;28;20686;-75
2023/04/18 12:22:42;;;;;;;8.07;7.27;;;;;;;;;;5093600;28;20278;-75
2023/04/18 12:25:26;;;;;;;6.63;6.03;;;;;;;;;;5093555;28;20208;-75
2023/04/18 12:27:55;;;;;;;8.03;7.23;;;;;;;;;;5094252;28;20218;-75
2023/04/18 12:30:25;;;;;;;7.40;6.70;;;;;;;;;;5093739;28;20202;-75
2023/04/18 12:32:53;;;;;;;7.70;5.97;;;;;;;;;;5092776;28;20224;-75
2023/04/18 12:35:20;;;;;;;5.97;5.10;;;;;;;;;;5093212;28;20688;-76
2023/04/18 12:37:47;;;;;;;5.37;4.87;;;;;;;;;;5093424;28;20217;-76
2023/04/18 12:40:13;;;;;;;6.20;4.90;;;;;;;;;;5093243;28;20228;-76
2023/04/18 12:42:43;;;;;;;5.50;4.93;;;;;;;;;;5093376;28;20315;-76
2023/04/18 12:45:10;;;;;;;5.70;5.20;;;;;;;;;;5093661;28;20227;-75
2023/04/18 12:47:38;;;;;;;5.30;4.80;;;;;;;;;;5093527;28;20215;-75
2023/04/18 12:50:04;;;;;;;4.60;4.20;;;;;;;;;;5093528;28;20204;-76
2023/04/18 12:52:30;;;;;;;4.87;4.47;;;;;;;;;;5093965;28;20656;-75
2023/04/18 12:54:57;;;;;;;5.43;4.93;;;;;;;;;;5094387;28;20546;-75
2023/04/18 12:57:24;;;;;;;5.60;4.97;;;;;;;;;;5093098;28;20208;-75
2023/04/18 12:59:50;;;;;;;5.07;4.67;;;;;;;;;;5092816;28;20227;-75
2023/04/18 13:02:16;;;;;;;5.10;4.37;;;;;;;;;;5092798;28;20607;-75
2023/04/18 13:04:43;;;;;;;5.43;4.40;;;;;;;;;;5093160;28;20204;-75
2023/04/18 13:07:09;;;;;;;4.80;4.40;;;;;;;;;;5092684;28;20204;-76
2023/04/18 13:09:35;;;;;;;5.00;4.60;;;;;;;;;;5093302;28;20199;-77
2023/04/18 13:12:02;;;;;;;4.77;4.37;;;;;;;;;;5092729;28;20214;-76
2023/04/18 13:14:28;;;;;;;5.60;3.93;;;;;;;;;;5092830;28;20257;-76
2023/04/18 13:16:55;;;;;;;6.03;4.43;;;;;;;;;;5093508;28;20215;-76
2023/04/18 13:19:21;;;;;;;4.87;4.03;;;;;;;;;;5092946;28;20223;-76
2023/04/18 13:21:47;;;;;;;4.03;3.73;;;;;;;;;;5092708;28;20214;-76
2023/04/18 13:24:13;;;;;;;4.70;4.30;;;;;;;;;;5092606;28;20223;-76
2023/04/18 13:26:40;;;;;;;4.07;3.70;;;;;;;;;;5092593;28;20208;-76
2023/04/18 13:29:06;;;;;;;3.97;3.67;;;;;;;;;;5092652;28;20204;-75
2023/04/18 13:31:32;;;;;;;4.17;3.77;;;;;;;;;;5093096;28;20211;-75
2023/04/18 13:33:58;;;;;;;4.27;3.87;;;;;;;;;;5094817;28;20235;-76
2023/04/18 13:36:25;;;;;;;3.90;3.60;;;;;;;;;;5098079;28;20280;-75
2023/04/18 13:38:52;;;;;;;4.90;3.90;;;;;;;;;;5096330;28;20686;-75
2023/04/18 13:41:18;;;;;;;4.23;3.83;;;;;;;;;;5096307;28;20686;-75
2023/04/18 13:43:44;;;;;;;5.23;4.00;;;;;;;;;;5096258;28;20234;-75
2023/04/18 13:46:11;;;;;;;4.97;3.80;;;;;;;;;;5096273;28;20215;-75
2023/04/18 13:48:37;;;;;;;4.30;3.90;;;;;;;;;;5096403;28;20207;-75
2023/04/18 13:51:04;;;;;;;4.10;3.70;;;;;;;;;;5096077;28;20200;-76
2023/04/18 13:53:30;;;;;;;5.40;4.10;;;;;;;;;;5096368;28;20224;-75
2023/04/18 13:55:57;;;;;;;5.33;4.30;;;;;;;;;;5095915;28;20200;-75
2023/04/18 13:58:23;;;;;;;3.60;3.30;;;;;;;;;;5096066;28;20689;-74
2023/04/18 14:00:49;;;;;;;3.87;3.57;;;;;;;;;;5095979;28;20690;-75
2023/04/18 14:03:15;;;;;;;5.07;3.63;;;;;;;;;;5096135;28;20602;-74
2023/04/18 14:05:42;;;;;;;4.53;3.73;;;;;;;;;;5096124;28;20574;-75
2023/04/18 14:08:08;;;;;;;4.13;3.70;;;;;;;;;;5095952;28;20574;-75
2023/04/18 14:10:34;;;;;;;4.47;3.83;;;;;;;;;;5096227;28;20291;-75
2023/04/18 14:13:00;;;;;;;4.07;3.60;;;;;;;;;;5096166;28;20226;-75
2023/04/18 14:15:27;;;;;;;4.27;3.87;;;;;;;;;;5095872;28;20204;-75
2023/04/18 14:17:53;;;;;;;4.93;3.77;;;;;;;;;;5095371;28;20207;-75
2023/04/18 14:20:19;;;;;;;3.87;3.50;;;;;;;;;;5095717;28;20220;-75
2023/04/18 14:22:49;;;;;;;4.00;3.70;;;;;;;;;;5095878;28;20262;-75